Douglas Observed Data For Previous 48 Hours

Caption
Day and Hour Reservoir Elevation (behind dam)* Tailwater Elevation (below dam)* Average Hourly Discharge*
7/16/2018 2 AM EDT 992.50 868.50 0
7/16/2018 3 AM EDT 992.52 868.45 4
7/16/2018 4 AM EDT 992.55 869.28 2,419
7/16/2018 5 AM EDT 992.59 868.73 0
7/16/2018 6 AM EDT 992.57 868.45 0
7/16/2018 7 AM EDT 992.55 868.67 53
7/16/2018 8 AM EDT 992.61 869.29 2,449
7/16/2018 9 AM EDT 992.63 868.74 0
7/16/2018 10 AM EDT 992.60 868.46 0
7/16/2018 11 AM EDT 992.59 868.68 52
7/16/2018 12 PM EDT 992.63 871.20 4,983
7/16/2018 1 PM EDT 992.58 875.07 14,826
7/16/2018 2 PM EDT 992.54 875.34 16,275
7/16/2018 3 PM EDT 992.50 875.32 16,278
7/16/2018 4 PM EDT 992.47 875.36 16,361
7/16/2018 5 PM EDT 992.42 875.35 16,369
7/16/2018 6 PM EDT 992.42 875.35 16,384
7/16/2018 7 PM EDT 992.39 875.39 16,399
7/16/2018 8 PM EDT 992.37 875.36 16,381
7/16/2018 9 PM EDT 992.35 875.31 16,357
7/16/2018 10 PM EDT 992.25 875.32 16,330
7/16/2018 11 PM EDT 992.27 873.50 9,805
7/17/2018 12 AM EDT 992.29 871.77 4,894
7/17/2018 1 AM EDT 992.30 869.60 112
7/17/2018 2 AM EDT 992.29 868.93 0
7/17/2018 3 AM EDT 992.34 868.96 57
7/17/2018 4 AM EDT 992.40 869.41 2,446
7/17/2018 5 AM EDT 992.37 868.80 0
7/17/2018 6 AM EDT 992.37 868.49 0
7/17/2018 7 AM EDT 992.42 868.44 3
7/17/2018 8 AM EDT 992.45 869.28 2,432
7/17/2018 9 AM EDT 992.44 868.74 0
7/17/2018 10 AM EDT 992.45 868.46 0
7/17/2018 11 AM EDT 992.47 870.07 387
7/17/2018 12 PM EDT 992.49 871.25 4,960
7/17/2018 1 PM EDT 992.41 874.91 14,129
7/17/2018 2 PM EDT 992.40 875.24 16,225
7/17/2018 3 PM EDT 992.43 875.36 16,325
7/17/2018 4 PM EDT 992.37 875.39 16,373
7/17/2018 5 PM EDT 992.32 875.37 16,397
7/17/2018 6 PM EDT 992.25 875.33 16,399
7/17/2018 7 PM EDT 992.26 875.33 16,380
7/17/2018 8 PM EDT 992.25 875.34 16,351
7/17/2018 9 PM EDT 992.17 875.36 16,358
7/17/2018 10 PM EDT 992.14 875.36 16,371
7/17/2018 11 PM EDT 992.17 873.53 10,554
7/18/2018 12 AM EDT 992.16 873.36 9,658
7/18/2018 1 AM EDT 992.13 871.71 4,885
7/18/2018 2 AM EDT 992.17 869.59 110
7/18/2018 3 AM EDT 992.23 868.92 0
7/18/2018 4 AM EDT 992.20 868.95 54
7/18/2018 5 AM EDT 992.23 869.40 2,442
7/18/2018 6 AM EDT 992.26 868.80 0
7/18/2018 7 AM EDT 992.29 868.49 0
7/18/2018 8 AM EDT 992.26 868.80 79
7/18/2018 9 AM EDT 992.29 871.07 4,924
7/18/2018 10 AM EDT 992.30 871.40 4,915
7/18/2018 11 AM EDT 992.30 871.59 4,931
7/18/2018 12 PM EDT 992.27 873.49 9,637
7/18/2018 1 PM EDT 992.21 875.23 16,074
7/18/2018 2 PM EDT 992.22 875.35 16,350
7/18/2018 3 PM EDT 992.17 875.35 16,394
7/18/2018 4 PM EDT 992.12 875.37 16,380
7/18/2018 5 PM EDT 992.07 875.39 16,158
7/18/2018 6 PM EDT 992.07 875.39 16,031

Elevations are in feet above sea level. Discharges are in cubic feet per second and are reported at the end of the hour.